sensor_id;sensor_type;location;lat;lon;timestamp;temperature;humidity
72380;SHT30;60354;47.798;12.472;2022-12-16T00:00:22;0.79;94.56
72380;SHT30;60354;47.798;12.472;2022-12-16T00:02:49;0.82;94.44
72380;SHT30;60354;47.798;12.472;2022-12-16T00:05:15;0.83;94.33
72380;SHT30;60354;47.798;12.472;2022-12-16T00:07:40;0.86;94.36
72380;SHT30;60354;47.798;12.472;2022-12-16T00:10:07;0.85;94.31
72380;SHT30;60354;47.798;12.472;2022-12-16T00:12:32;0.85;94.32
72380;SHT30;60354;47.798;12.472;2022-12-16T00:14:58;0.85;94.26
72380;SHT30;60354;47.798;12.472;2022-12-16T00:17:23;0.85;94.28
72380;SHT30;60354;47.798;12.472;2022-12-16T00:19:49;0.86;94.35
72380;SHT30;60354;47.798;12.472;2022-12-16T00:22:14;0.83;94.29
72380;SHT30;60354;47.798;12.472;2022-12-16T00:24:40;0.87;94.29
72380;SHT30;60354;47.798;12.472;2022-12-16T00:27:05;0.87;94.24
72380;SHT30;60354;47.798;12.472;2022-12-16T00:29:31;0.86;94.31
72380;SHT30;60354;47.798;12.472;2022-12-16T00:31:57;0.85;94.42
72380;SHT30;60354;47.798;12.472;2022-12-16T00:34:22;0.80;94.46
72380;SHT30;60354;47.798;12.472;2022-12-16T00:36:48;0.80;94.73
72380;SHT30;60354;47.798;12.472;2022-12-16T00:39:13;0.79;94.83
72380;SHT30;60354;47.798;12.472;2022-12-16T00:41:39;0.80;94.68
72380;SHT30;60354;47.798;12.472;2022-12-16T00:44:04;0.82;94.59
72380;SHT30;60354;47.798;12.472;2022-12-16T00:46:30;0.83;94.69
72380;SHT30;60354;47.798;12.472;2022-12-16T00:48:56;0.85;94.59
72380;SHT30;60354;47.798;12.472;2022-12-16T00:51:21;0.90;94.44
72380;SHT30;60354;47.798;12.472;2022-12-16T00:53:47;0.85;94.37
72380;SHT30;60354;47.798;12.472;2022-12-16T00:56:13;0.87;94.42
72380;SHT30;60354;47.798;12.472;2022-12-16T00:58:44;0.89;94.49
72380;SHT30;60354;47.798;12.472;2022-12-16T01:01:10;0.89;94.48
72380;SHT30;60354;47.798;12.472;2022-12-16T01:03:36;0.89;94.43
72380;SHT30;60354;47.798;12.472;2022-12-16T01:06:07;0.89;94.38
72380;SHT30;60354;47.798;12.472;2022-12-16T01:08:33;0.89;94.43
72380;SHT30;60354;47.798;12.472;2022-12-16T01:10:58;0.86;94.43
72380;SHT30;60354;47.798;12.472;2022-12-16T01:13:24;0.86;94.45
72380;SHT30;60354;47.798;12.472;2022-12-16T01:15:50;0.92;94.43
72380;SHT30;60354;47.798;12.472;2022-12-16T01:18:16;0.92;94.40
72380;SHT30;60354;47.798;12.472;2022-12-16T01:20:42;0.93;94.21
72380;SHT30;60354;47.798;12.472;2022-12-16T01:23:08;0.96;94.10
72380;SHT30;60354;47.798;12.472;2022-12-16T01:25:34;0.93;93.91
72380;SHT30;60354;47.798;12.472;2022-12-16T01:27:59;0.95;94.02
72380;SHT30;60354;47.798;12.472;2022-12-16T01:30:25;0.96;93.92
72380;SHT30;60354;47.798;12.472;2022-12-16T01:32:50;0.95;93.94
72380;SHT30;60354;47.798;12.472;2022-12-16T01:35:16;0.96;93.90
72380;SHT30;60354;47.798;12.472;2022-12-16T01:37:42;0.89;94.11
72380;SHT30;60354;47.798;12.472;2022-12-16T01:40:17;0.93;94.25
72380;SHT30;60354;47.798;12.472;2022-12-16T01:42:44;0.89;94.27
72380;SHT30;60354;47.798;12.472;2022-12-16T01:45:29;0.90;94.42
72380;SHT30;60354;47.798;12.472;2022-12-16T01:47:59;0.86;94.21
72380;SHT30;60354;47.798;12.472;2022-12-16T01:50:26;0.75;94.89
72380;SHT30;60354;47.798;12.472;2022-12-16T01:52:54;0.79;94.95
72380;SHT30;60354;47.798;12.472;2022-12-16T01:55:28;0.82;94.90
72380;SHT30;60354;47.798;12.472;2022-12-16T01:57:58;0.77;94.94
72380;SHT30;60354;47.798;12.472;2022-12-16T02:00:27;0.70;95.09
72380;SHT30;60354;47.798;12.472;2022-12-16T02:02:54;0.70;95.15
72380;SHT30;60354;47.798;12.472;2022-12-16T02:05:20;0.65;95.38
72380;SHT30;60354;47.798;12.472;2022-12-16T02:16:25;0.77;94.99
72380;SHT30;60354;47.798;12.472;2022-12-16T02:19:16;0.82;94.85
72380;SHT30;60354;47.798;12.472;2022-12-16T02:35:36;0.87;93.98
72380;SHT30;60354;47.798;12.472;2022-12-16T02:38:16;0.92;94.27
72380;SHT30;60354;47.798;12.472;2022-12-16T02:41:07;0.92;94.19
72380;SHT30;60354;47.798;12.472;2022-12-16T02:43:54;0.92;93.87
72380;SHT30;60354;47.798;12.472;2022-12-16T02:46:26;0.86;94.01
72380;SHT30;60354;47.798;12.472;2022-12-16T02:48:53;0.83;93.95
72380;SHT30;60354;47.798;12.472;2022-12-16T02:51:20;0.79;93.65
72380;SHT30;60354;47.798;12.472;2022-12-16T02:53:47;0.82;94.10
72380;SHT30;60354;47.798;12.472;2022-12-16T02:56:33;0.83;94.02
72380;SHT30;60354;47.798;12.472;2022-12-16T03:04:54;0.85;94.05
72380;SHT30;60354;47.798;12.472;2022-12-16T03:07:23;0.87;94.07
72380;SHT30;60354;47.798;12.472;2022-12-16T03:09:52;0.83;93.88
72380;SHT30;60354;47.798;12.472;2022-12-16T03:12:20;0.80;94.03
72380;SHT30;60354;47.798;12.472;2022-12-16T03:14:49;0.77;94.09
72380;SHT30;60354;47.798;12.472;2022-12-16T03:17:15;0.77;94.31
72380;SHT30;60354;47.798;12.472;2022-12-16T03:19:44;0.77;94.18
72380;SHT30;60354;47.798;12.472;2022-12-16T03:22:17;0.75;94.33
72380;SHT30;60354;47.798;12.472;2022-12-16T03:24:44;0.76;94.36
72380;SHT30;60354;47.798;12.472;2022-12-16T03:27:24;0.77;94.36
72380;SHT30;60354;47.798;12.472;2022-12-16T03:32:40;0.69;94.49
72380;SHT30;60354;47.798;12.472;2022-12-16T03:38:03;0.72;94.70
72380;SHT30;60354;47.798;12.472;2022-12-16T03:40:30;0.70;94.53
72380;SHT30;60354;47.798;12.472;2022-12-16T03:42:57;0.68;94.50
72380;SHT30;60354;47.798;12.472;2022-12-16T03:45:35;0.70;94.71
72380;SHT30;60354;47.798;12.472;2022-12-16T03:48:01;0.70;94.43
72380;SHT30;60354;47.798;12.472;2022-12-16T03:50:32;0.77;94.40
72380;SHT30;60354;47.798;12.472;2022-12-16T03:52:58;0.80;94.24
72380;SHT30;60354;47.798;12.472;2022-12-16T03:55:24;0.77;93.82
72380;SHT30;60354;47.798;12.472;2022-12-16T03:57:49;0.82;94.04
72380;SHT30;60354;47.798;12.472;2022-12-16T04:00:15;0.83;94.01
72380;SHT30;60354;47.798;12.472;2022-12-16T04:02:41;0.83;93.82
72380;SHT30;60354;47.798;12.472;2022-12-16T04:05:07;0.77;93.99
72380;SHT30;60354;47.798;12.472;2022-12-16T04:07:33;0.76;93.94
72380;SHT30;60354;47.798;12.472;2022-12-16T04:09:58;0.75;93.80
72380;SHT30;60354;47.798;12.472;2022-12-16T04:12:24;0.66;93.84
72380;SHT30;60354;47.798;12.472;2022-12-16T04:15:09;0.72;93.85
72380;SHT30;60354;47.798;12.472;2022-12-16T04:17:53;0.76;93.73
72380;SHT30;60354;47.798;12.472;2022-12-16T04:20:42;0.77;93.34
72380;SHT30;60354;47.798;12.472;2022-12-16T04:23:28;0.79;93.56
72380;SHT30;60354;47.798;12.472;2022-12-16T04:26:14;0.77;93.64
72380;SHT30;60354;47.798;12.472;2022-12-16T04:28:40;0.80;93.66
72380;SHT30;60354;47.798;12.472;2022-12-16T04:31:05;0.82;93.46
72380;SHT30;60354;47.798;12.472;2022-12-16T04:33:31;0.89;93.56
72380;SHT30;60354;47.798;12.472;2022-12-16T04:36:15;0.85;93.66
72380;SHT30;60354;47.798;12.472;2022-12-16T04:38:59;0.86;93.67
72380;SHT30;60354;47.798;12.472;2022-12-16T04:41:43;0.89;93.62
72380;SHT30;60354;47.798;12.472;2022-12-16T04:44:27;0.90;93.58
72380;SHT30;60354;47.798;12.472;2022-12-16T04:47:11;0.92;93.60
72380;SHT30;60354;47.798;12.472;2022-12-16T04:49:55;0.89;93.53
72380;SHT30;60354;47.798;12.472;2022-12-16T04:52:39;0.80;93.24
72380;SHT30;60354;47.798;12.472;2022-12-16T04:55:24;0.86;93.53
72380;SHT30;60354;47.798;12.472;2022-12-16T04:58:08;0.89;93.53
72380;SHT30;60354;47.798;12.472;2022-12-16T05:00:52;0.90;93.36
72380;SHT30;60354;47.798;12.472;2022-12-16T05:03:36;0.92;93.25
72380;SHT30;60354;47.798;12.472;2022-12-16T05:06:20;0.96;93.24
72380;SHT30;60354;47.798;12.472;2022-12-16T05:09:05;0.95;93.18
72380;SHT30;60354;47.798;12.472;2022-12-16T05:11:49;0.97;93.13
72380;SHT30;60354;47.798;12.472;2022-12-16T05:14:34;0.96;92.93
72380;SHT30;60354;47.798;12.472;2022-12-16T05:17:18;0.96;93.00
72380;SHT30;60354;47.798;12.472;2022-12-16T05:20:03;0.97;93.12
72380;SHT30;60354;47.798;12.472;2022-12-16T05:22:47;1.00;93.14
72380;SHT30;60354;47.798;12.472;2022-12-16T05:25:31;0.99;92.71
72380;SHT30;60354;47.798;12.472;2022-12-16T05:28:14;0.99;92.71
72380;SHT30;60354;47.798;12.472;2022-12-16T05:30:58;0.96;92.71
72380;SHT30;60354;47.798;12.472;2022-12-16T05:33:42;0.89;93.52
72380;SHT30;60354;47.798;12.472;2022-12-16T05:36:26;0.80;93.29
72380;SHT30;60354;47.798;12.472;2022-12-16T05:39:10;0.82;93.35
72380;SHT30;60354;47.798;12.472;2022-12-16T05:41:55;0.86;93.32
72380;SHT30;60354;47.798;12.472;2022-12-16T05:44:39;0.77;92.94
72380;SHT30;60354;47.798;12.472;2022-12-16T05:47:24;0.75;92.67
72380;SHT30;60354;47.798;12.472;2022-12-16T05:50:08;0.76;92.92
72380;SHT30;60354;47.798;12.472;2022-12-16T05:52:57;0.76;92.98
72380;SHT30;60354;47.798;12.472;2022-12-16T05:55:42;0.83;92.96
72380;SHT30;60354;47.798;12.472;2022-12-16T05:58:27;0.83;92.94
72380;SHT30;60354;47.798;12.472;2022-12-16T06:01:11;0.86;92.97
72380;SHT30;60354;47.798;12.472;2022-12-16T06:03:55;0.85;92.90
72380;SHT30;60354;47.798;12.472;2022-12-16T06:06:40;0.83;92.62
72380;SHT30;60354;47.798;12.472;2022-12-16T06:09:24;0.85;92.56
72380;SHT30;60354;47.798;12.472;2022-12-16T06:12:09;0.90;92.71
72380;SHT30;60354;47.798;12.472;2022-12-16T06:14:53;0.95;92.69
72380;SHT30;60354;47.798;12.472;2022-12-16T06:17:40;0.85;92.76
72380;SHT30;60354;47.798;12.472;2022-12-16T06:20:24;0.82;92.58
72380;SHT30;60354;47.798;12.472;2022-12-16T06:23:08;0.82;92.91
72380;SHT30;60354;47.798;12.472;2022-12-16T06:25:51;0.77;93.12
72380;SHT30;60354;47.798;12.472;2022-12-16T06:28:35;0.77;92.85
72380;SHT30;60354;47.798;12.472;2022-12-16T06:31:19;0.79;93.04
72380;SHT30;60354;47.798;12.472;2022-12-16T06:34:03;0.79;92.84
72380;SHT30;60354;47.798;12.472;2022-12-16T06:36:47;0.82;93.04
72380;SHT30;60354;47.798;12.472;2022-12-16T06:39:31;0.82;93.02
72380;SHT30;60354;47.798;12.472;2022-12-16T06:42:15;0.86;92.86
72380;SHT30;60354;47.798;12.472;2022-12-16T06:44:58;0.89;92.92
72380;SHT30;60354;47.798;12.472;2022-12-16T06:47:42;0.87;92.92
72380;SHT30;60354;47.798;12.472;2022-12-16T06:50:28;0.86;92.73
72380;SHT30;60354;47.798;12.472;2022-12-16T06:53:12;0.92;92.82
72380;SHT30;60354;47.798;12.472;2022-12-16T06:55:56;0.96;92.64
72380;SHT30;60354;47.798;12.472;2022-12-16T06:58:41;0.95;92.61
72380;SHT30;60354;47.798;12.472;2022-12-16T07:01:25;0.96;92.40
72380;SHT30;60354;47.798;12.472;2022-12-16T07:04:09;0.97;92.48
72380;SHT30;60354;47.798;12.472;2022-12-16T07:06:53;0.99;92.63
72380;SHT30;60354;47.798;12.472;2022-12-16T07:09:37;1.03;91.81
72380;SHT30;60354;47.798;12.472;2022-12-16T07:12:21;0.89;92.37
72380;SHT30;60354;47.798;12.472;2022-12-16T07:15:06;0.85;92.74
72380;SHT30;60354;47.798;12.472;2022-12-16T07:17:50;0.83;93.04
72380;SHT30;60354;47.798;12.472;2022-12-16T07:20:34;0.86;93.06
72380;SHT30;60354;47.798;12.472;2022-12-16T07:23:18;0.89;93.16
72380;SHT30;60354;47.798;12.472;2022-12-16T07:26:01;0.89;93.13
72380;SHT30;60354;47.798;12.472;2022-12-16T07:28:46;0.92;93.24
72380;SHT30;60354;47.798;12.472;2022-12-16T07:31:29;0.95;93.11
72380;SHT30;60354;47.798;12.472;2022-12-16T07:34:13;0.99;93.07
72380;SHT30;60354;47.798;12.472;2022-12-16T07:36:57;1.00;93.19
72380;SHT30;60354;47.798;12.472;2022-12-16T07:39:41;1.01;93.30
72380;SHT30;60354;47.798;12.472;2022-12-16T07:42:25;1.04;92.81
72380;SHT30;60354;47.798;12.472;2022-12-16T07:45:09;0.93;92.72
72380;SHT30;60354;47.798;12.472;2022-12-16T07:47:53;0.92;92.90
72380;SHT30;60354;47.798;12.472;2022-12-16T07:50:37;0.96;92.99
72380;SHT30;60354;47.798;12.472;2022-12-16T07:53:21;1.00;93.08
72380;SHT30;60354;47.798;12.472;2022-12-16T07:56:06;1.00;93.15
72380;SHT30;60354;47.798;12.472;2022-12-16T07:58:50;0.93;92.90
72380;SHT30;60354;47.798;12.472;2022-12-16T08:01:33;0.93;92.85
72380;SHT30;60354;47.798;12.472;2022-12-16T08:04:17;0.92;92.79
72380;SHT30;60354;47.798;12.472;2022-12-16T08:07:01;0.89;93.16
72380;SHT30;60354;47.798;12.472;2022-12-16T08:09:45;0.92;93.03
72380;SHT30;60354;47.798;12.472;2022-12-16T08:12:29;0.96;93.12
72380;SHT30;60354;47.798;12.472;2022-12-16T08:15:13;0.97;93.20
72380;SHT30;60354;47.798;12.472;2022-12-16T08:17:57;1.03;93.84
72380;SHT30;60354;47.798;12.472;2022-12-16T08:20:41;1.06;93.46
72380;SHT30;60354;47.798;12.472;2022-12-16T08:23:25;1.16;93.47
72380;SHT30;60354;47.798;12.472;2022-12-16T08:26:09;1.08;92.70
72380;SHT30;60354;47.798;12.472;2022-12-16T08:28:53;1.08;92.82
72380;SHT30;60354;47.798;12.472;2022-12-16T08:31:37;1.14;92.80
72380;SHT30;60354;47.798;12.472;2022-12-16T08:34:21;1.22;92.77
72380;SHT30;60354;47.798;12.472;2022-12-16T08:37:05;1.17;92.73
72380;SHT30;60354;47.798;12.472;2022-12-16T08:39:49;1.19;92.72
72380;SHT30;60354;47.798;12.472;2022-12-16T08:42:34;1.22;93.03
72380;SHT30;60354;47.798;12.472;2022-12-16T08:45:18;1.23;92.72
72380;SHT30;60354;47.798;12.472;2022-12-16T08:48:02;1.10;92.61
72380;SHT30;60354;47.798;12.472;2022-12-16T08:50:46;1.16;92.72
72380;SHT30;60354;47.798;12.472;2022-12-16T08:53:30;1.06;92.31
72380;SHT30;60354;47.798;12.472;2022-12-16T08:56:15;0.99;92.77
72380;SHT30;60354;47.798;12.472;2022-12-16T08:58:59;0.95;93.02
72380;SHT30;60354;47.798;12.472;2022-12-16T09:01:43;0.89;92.82
72380;SHT30;60354;47.798;12.472;2022-12-16T09:04:27;0.93;92.77
72380;SHT30;60354;47.798;12.472;2022-12-16T09:07:11;0.90;92.42
72380;SHT30;60354;47.798;12.472;2022-12-16T09:09:54;0.97;92.72
72380;SHT30;60354;47.798;12.472;2022-12-16T09:12:38;1.00;92.51
72380;SHT30;60354;47.798;12.472;2022-12-16T09:15:22;1.07;92.47
72380;SHT30;60354;47.798;12.472;2022-12-16T09:18:07;1.10;92.06
72380;SHT30;60354;47.798;12.472;2022-12-16T09:20:51;1.17;91.84
72380;SHT30;60354;47.798;12.472;2022-12-16T09:23:36;1.17;91.41
72380;SHT30;60354;47.798;12.472;2022-12-16T09:26:19;1.19;91.45
72380;SHT30;60354;47.798;12.472;2022-12-16T09:29:03;1.23;91.67
72380;SHT30;60354;47.798;12.472;2022-12-16T09:31:47;1.22;91.30
72380;SHT30;60354;47.798;12.472;2022-12-16T09:34:32;1.28;91.47
72380;SHT30;60354;47.798;12.472;2022-12-16T09:37:16;1.28;91.65
72380;SHT30;60354;47.798;12.472;2022-12-16T09:40:00;1.31;91.64
72380;SHT30;60354;47.798;12.472;2022-12-16T09:42:49;1.36;91.68
72380;SHT30;60354;47.798;12.472;2022-12-16T09:49:35;1.33;91.35
72380;SHT30;60354;47.798;12.472;2022-12-16T09:51:44;1.36;91.20
72380;SHT30;60354;47.798;12.472;2022-12-16T09:54:34;1.36;91.01
72380;SHT30;60354;47.798;12.472;2022-12-16T09:57:20;1.40;90.79
72380;SHT30;60354;47.798;12.472;2022-12-16T10:00:06;1.43;90.76
72380;SHT30;60354;47.798;12.472;2022-12-16T10:02:56;1.36;90.52
72380;SHT30;60354;47.798;12.472;2022-12-16T10:06:41;1.16;90.51
72380;SHT30;60354;47.798;12.472;2022-12-16T10:09:07;1.06;90.69
72380;SHT30;60354;47.798;12.472;2022-12-16T10:12:05;1.06;90.89
72380;SHT30;60354;47.798;12.472;2022-12-16T10:15:01;1.00;91.26
72380;SHT30;60354;47.798;12.472;2022-12-16T10:17:46;1.04;90.62
72380;SHT30;60354;47.798;12.472;2022-12-16T10:20:43;1.01;90.95
72380;SHT30;60354;47.798;12.472;2022-12-16T10:23:38;1.01;90.58
72380;SHT30;60354;47.798;12.472;2022-12-16T10:29:31;1.04;90.23
72380;SHT30;60354;47.798;12.472;2022-12-16T10:32:32;1.07;89.67
72380;SHT30;60354;47.798;12.472;2022-12-16T10:35:27;1.04;90.18
72380;SHT30;60354;47.798;12.472;2022-12-16T10:38:24;0.97;90.87
72380;SHT30;60354;47.798;12.472;2022-12-16T10:41:11;0.96;90.51
72380;SHT30;60354;47.798;12.472;2022-12-16T10:43:57;0.87;91.25
72380;SHT30;60354;47.798;12.472;2022-12-16T10:46:41;0.86;91.54
72380;SHT30;60354;47.798;12.472;2022-12-16T10:49:25;0.96;91.16
72380;SHT30;60354;47.798;12.472;2022-12-16T10:52:11;1.07;91.02
72380;SHT30;60354;47.798;12.472;2022-12-16T10:55:03;1.19;90.90
72380;SHT30;60354;47.798;12.472;2022-12-16T11:00:48;1.40;90.50
72380;SHT30;60354;47.798;12.472;2022-12-16T11:03:37;1.45;90.10
72380;SHT30;60354;47.798;12.472;2022-12-16T11:09:21;1.47;89.89
72380;SHT30;60354;47.798;12.472;2022-12-16T11:12:26;1.48;89.86
72380;SHT30;60354;47.798;12.472;2022-12-16T11:15:24;1.40;90.09
72380;SHT30;60354;47.798;12.472;2022-12-16T11:18:12;1.34;90.39
72380;SHT30;60354;47.798;12.472;2022-12-16T11:21:18;1.40;90.54
72380;SHT30;60354;47.798;12.472;2022-12-16T11:26:54;1.41;90.46
72380;SHT30;60354;47.798;12.472;2022-12-16T11:29:56;1.36;89.92
72380;SHT30;60354;47.798;12.472;2022-12-16T11:32:52;1.31;90.10
72380;SHT30;60354;47.798;12.472;2022-12-16T11:35:42;1.16;90.23
72380;SHT30;60354;47.798;12.472;2022-12-16T11:38:47;1.26;90.53
72380;SHT30;60354;47.798;12.472;2022-12-16T11:41:36;1.28;89.99
72380;SHT30;60354;47.798;12.472;2022-12-16T11:44:51;1.36;89.55
72380;SHT30;60354;47.798;12.472;2022-12-16T11:47:55;1.34;89.55
72380;SHT30;60354;47.798;12.472;2022-12-16T11:50:49;1.38;89.73
72380;SHT30;60354;47.798;12.472;2022-12-16T11:53:39;1.07;90.59
72380;SHT30;60354;47.798;12.472;2022-12-16T11:56:30;0.92;90.14
72380;SHT30;60354;47.798;12.472;2022-12-16T12:02:33;0.77;91.26
72380;SHT30;60354;47.798;12.472;2022-12-16T12:05:27;0.49;90.93
72380;SHT30;60354;47.798;12.472;2022-12-16T12:11:30;0.48;91.77
72380;SHT30;60354;47.798;12.472;2022-12-16T12:17:21;0.45;92.30
72380;SHT30;60354;47.798;12.472;2022-12-16T12:23:38;0.41;91.43
72380;SHT30;60354;47.798;12.472;2022-12-16T12:26:28;0.51;91.57
72380;SHT30;60354;47.798;12.472;2022-12-16T12:29:21;0.45;92.16
72380;SHT30;60354;47.798;12.472;2022-12-16T12:32:22;0.42;92.13
72380;SHT30;60354;47.798;12.472;2022-12-16T12:35:55;0.52;91.96
72380;SHT30;60354;47.798;12.472;2022-12-16T12:38:42;0.59;91.80
72380;SHT30;60354;47.798;12.472;2022-12-16T12:41:49;0.66;91.47
72380;SHT30;60354;47.798;12.472;2022-12-16T12:48:20;0.77;89.92
72380;SHT30;60354;47.798;12.472;2022-12-16T12:51:19;0.89;90.20
72380;SHT30;60354;47.798;12.472;2022-12-16T12:56:59;0.96;89.37
72380;SHT30;60354;47.798;12.472;2022-12-16T12:59:58;1.04;89.70
72380;SHT30;60354;47.798;12.472;2022-12-16T13:06:20;0.87;90.24
72380;SHT30;60354;47.798;12.472;2022-12-16T13:09:31;0.76;90.43
72380;SHT30;60354;47.798;12.472;2022-12-16T13:20:42;0.87;90.14
72380;SHT30;60354;47.798;12.472;2022-12-16T13:26:12;0.80;89.47
72380;SHT30;60354;47.798;12.472;2022-12-16T13:37:55;0.66;90.40
72380;SHT30;60354;47.798;12.472;2022-12-16T13:41:00;0.62;90.63
72380;SHT30;60354;47.798;12.472;2022-12-16T13:43:58;0.68;90.85
72380;SHT30;60354;47.798;12.472;2022-12-16T13:46:47;0.68;90.47
72380;SHT30;60354;47.798;12.472;2022-12-16T13:49:47;0.65;91.20
72380;SHT30;60354;47.798;12.472;2022-12-16T13:52:45;0.66;90.89
72380;SHT30;60354;47.798;12.472;2022-12-16T13:55:37;0.70;90.66
72380;SHT30;60354;47.798;12.472;2022-12-16T13:58:41;0.68;90.69
72380;SHT30;60354;47.798;12.472;2022-12-16T14:01:36;0.62;90.86
72380;SHT30;60354;47.798;12.472;2022-12-16T14:04:33;0.59;90.46
72380;SHT30;60354;47.798;12.472;2022-12-16T14:07:20;0.66;90.28
72380;SHT30;60354;47.798;12.472;2022-12-16T14:10:05;0.65;90.11
72380;SHT30;60354;47.798;12.472;2022-12-16T14:13:02;0.62;89.61
72380;SHT30;60354;47.798;12.472;2022-12-16T14:16:10;0.55;89.73
72380;SHT30;60354;47.798;12.472;2022-12-16T14:24:46;0.65;90.14
72380;SHT30;60354;47.798;12.472;2022-12-16T14:27:31;0.68;90.20
72380;SHT30;60354;47.798;12.472;2022-12-16T14:30:22;0.58;90.18
72380;SHT30;60354;47.798;12.472;2022-12-16T14:36:21;0.68;90.06
72380;SHT30;60354;47.798;12.472;2022-12-16T14:39:23;0.66;90.15
72380;SHT30;60354;47.798;12.472;2022-12-16T14:42:18;0.65;90.15
72380;SHT30;60354;47.798;12.472;2022-12-16T14:45:04;0.61;90.20
72380;SHT30;60354;47.798;12.472;2022-12-16T14:47:48;0.61;89.64
72380;SHT30;60354;47.798;12.472;2022-12-16T14:50:32;0.61;89.88
72380;SHT30;60354;47.798;12.472;2022-12-16T14:53:29;0.68;89.85
72380;SHT30;60354;47.798;12.472;2022-12-16T14:56:19;0.61;90.19
72380;SHT30;60354;47.798;12.472;2022-12-16T15:01:57;0.61;90.46
72380;SHT30;60354;47.798;12.472;2022-12-16T15:04:43;0.52;90.11
72380;SHT30;60354;47.798;12.472;2022-12-16T15:07:33;0.54;90.30
72380;SHT30;60354;47.798;12.472;2022-12-16T15:10:21;0.54;90.79
72380;SHT30;60354;47.798;12.472;2022-12-16T15:13:13;0.42;90.67
72380;SHT30;60354;47.798;12.472;2022-12-16T15:15:58;0.44;90.95
72380;SHT30;60354;47.798;12.472;2022-12-16T15:18:44;0.46;90.95
72380;SHT30;60354;47.798;12.472;2022-12-16T15:21:32;0.49;90.82
72380;SHT30;60354;47.798;12.472;2022-12-16T15:24:19;0.44;91.27
72380;SHT30;60354;47.798;12.472;2022-12-16T15:27:26;0.45;91.29
72380;SHT30;60354;47.798;12.472;2022-12-16T15:30:37;0.45;91.16
72380;SHT30;60354;47.798;12.472;2022-12-16T15:33:24;0.45;91.33
72380;SHT30;60354;47.798;12.472;2022-12-16T15:36:32;0.45;91.14
72380;SHT30;60354;47.798;12.472;2022-12-16T15:39:39;0.44;91.25
72380;SHT30;60354;47.798;12.472;2022-12-16T15:42:29;0.44;91.16
72380;SHT30;60354;47.798;12.472;2022-12-16T15:48:22;0.40;91.38
72380;SHT30;60354;47.798;12.472;2022-12-16T15:54:03;0.42;91.17
72380;SHT30;60354;47.798;12.472;2022-12-16T15:56:47;0.40;91.43
72380;SHT30;60354;47.798;12.472;2022-12-16T15:59:34;0.19;91.78
72380;SHT30;60354;47.798;12.472;2022-12-16T16:02:26;0.18;92.19
72380;SHT30;60354;47.798;12.472;2022-12-16T16:05:20;0.15;92.01
72380;SHT30;60354;47.798;12.472;2022-12-16T16:08:05;0.10;91.88
72380;SHT30;60354;47.798;12.472;2022-12-16T16:10:49;0.04;92.59
72380;SHT30;60354;47.798;12.472;2022-12-16T16:13:34;0.08;92.85
72380;SHT30;60354;47.798;12.472;2022-12-16T16:16:18;0.07;92.48
72380;SHT30;60354;47.798;12.472;2022-12-16T16:19:02;-0.02;92.23
72380;SHT30;60354;47.798;12.472;2022-12-16T16:21:47;-0.09;92.21
72380;SHT30;60354;47.798;12.472;2022-12-16T16:24:31;-0.13;92.36
72380;SHT30;60354;47.798;12.472;2022-12-16T16:27:17;-0.21;92.75
72380;SHT30;60354;47.798;12.472;2022-12-16T16:30:02;-0.26;92.79
72380;SHT30;60354;47.798;12.472;2022-12-16T16:32:46;-0.24;92.86
72380;SHT30;60354;47.798;12.472;2022-12-16T16:35:31;-0.27;92.59
72380;SHT30;60354;47.798;12.472;2022-12-16T16:38:15;-0.30;92.62
72380;SHT30;60354;47.798;12.472;2022-12-16T16:40:59;-0.27;92.97
72380;SHT30;60354;47.798;12.472;2022-12-16T16:43:44;-0.27;92.80
72380;SHT30;60354;47.798;12.472;2022-12-16T16:46:39;-0.27;92.96
72380;SHT30;60354;47.798;12.472;2022-12-16T16:49:28;-0.31;92.67
72380;SHT30;60354;47.798;12.472;2022-12-16T16:52:15;-0.33;92.93
72380;SHT30;60354;47.798;12.472;2022-12-16T16:54:59;-0.38;93.14
72380;SHT30;60354;47.798;12.472;2022-12-16T16:57:44;-0.38;92.81
72380;SHT30;60354;47.798;12.472;2022-12-16T17:00:29;-0.36;93.16
72380;SHT30;60354;47.798;12.472;2022-12-16T17:03:13;-0.42;92.86
72380;SHT30;60354;47.798;12.472;2022-12-16T17:05:57;-0.48;93.11
72380;SHT30;60354;47.798;12.472;2022-12-16T17:08:41;-0.54;93.00
72380;SHT30;60354;47.798;12.472;2022-12-16T17:11:27;-0.58;92.80
72380;SHT30;60354;47.798;12.472;2022-12-16T17:14:13;-0.61;92.50
72380;SHT30;60354;47.798;12.472;2022-12-16T17:16:56;-0.64;92.88
72380;SHT30;60354;47.798;12.472;2022-12-16T17:19:40;-0.64;93.33
72380;SHT30;60354;47.798;12.472;2022-12-16T17:22:24;-0.68;93.14
72380;SHT30;60354;47.798;12.472;2022-12-16T17:25:09;-0.71;92.71
72380;SHT30;60354;47.798;12.472;2022-12-16T17:27:53;-0.76;93.11
72380;SHT30;60354;47.798;12.472;2022-12-16T17:30:37;-0.75;93.50
72380;SHT30;60354;47.798;12.472;2022-12-16T17:33:21;-0.76;93.35
72380;SHT30;60354;47.798;12.472;2022-12-16T17:36:10;-0.76;93.36
72380;SHT30;60354;47.798;12.472;2022-12-16T17:38:54;-0.78;93.24
72380;SHT30;60354;47.798;12.472;2022-12-16T17:41:39;-0.72;93.74
72380;SHT30;60354;47.798;12.472;2022-12-16T17:49:49;-0.76;92.97
72380;SHT30;60354;47.798;12.472;2022-12-16T17:52:54;-0.84;92.69
72380;SHT30;60354;47.798;12.472;2022-12-16T17:59:46;-0.91;92.97
72380;SHT30;60354;47.798;12.472;2022-12-16T18:02:37;-0.93;93.12
72380;SHT30;60354;47.798;12.472;2022-12-16T18:05:39;-0.95;92.97
72380;SHT30;60354;47.798;12.472;2022-12-16T18:08:23;-1.00;93.36
72380;SHT30;60354;47.798;12.472;2022-12-16T18:11:06;-1.03;93.28
72380;SHT30;60354;47.798;12.472;2022-12-16T18:13:50;-1.13;92.93
72380;SHT30;60354;47.798;12.472;2022-12-16T18:16:35;-1.23;93.28
72380;SHT30;60354;47.798;12.472;2022-12-16T18:19:19;-1.25;93.04
72380;SHT30;60354;47.798;12.472;2022-12-16T18:22:03;-1.20;93.26
72380;SHT30;60354;47.798;12.472;2022-12-16T18:24:47;-1.16;93.24
72380;SHT30;60354;47.798;12.472;2022-12-16T18:27:31;-1.16;93.51
72380;SHT30;60354;47.798;12.472;2022-12-16T18:30:15;-1.21;92.23
72380;SHT30;60354;47.798;12.472;2022-12-16T18:32:59;-1.36;92.32
72380;SHT30;60354;47.798;12.472;2022-12-16T18:35:43;-1.39;92.96
72380;SHT30;60354;47.798;12.472;2022-12-16T18:38:27;-1.47;92.34
72380;SHT30;60354;47.798;12.472;2022-12-16T18:41:16;-1.40;92.72
72380;SHT30;60354;47.798;12.472;2022-12-16T18:44:08;-1.44;92.27
72380;SHT30;60354;47.798;12.472;2022-12-16T18:46:52;-1.50;92.17
72380;SHT30;60354;47.798;12.472;2022-12-16T18:49:37;-1.54;92.55
72380;SHT30;60354;47.798;12.472;2022-12-16T18:52:21;-1.51;93.38
72380;SHT30;60354;47.798;12.472;2022-12-16T18:55:05;-1.42;93.24
72380;SHT30;60354;47.798;12.472;2022-12-16T18:58:00;-1.46;92.89
72380;SHT30;60354;47.798;12.472;2022-12-16T19:00:44;-1.43;92.97
72380;SHT30;60354;47.798;12.472;2022-12-16T19:03:28;-1.39;92.60
72380;SHT30;60354;47.798;12.472;2022-12-16T19:06:12;-1.33;93.36